Terminal Aerodrome Forecast
Issued by NWS

Home | Current Version | Previous Version | Text Only | Print | Product List | Glossary On
Versions: 1 2 3 4 5 6 7 8 9 10 11 12 13 14 15 16 17 18 19 20
000
FTUS43 KAPX 251657 AAB
TAFMBL
TAF AMD
KMBL 251657Z 2517/2612 29011KT P6SM VCSH BKN025
      TEMPO 2517/2519 5SM -SHRA BKN012 OVC025
     FM252100 29007KT P6SM VCSH BKN035
     FM260900 29006KT P6SM VCSH OVC015=

USA.gov is the U.S. government's official web portal to all federal, state and local government web resources and services.